Meteo Giornale » Osservazioni meteo Italia » Udine-Rivolto

ore: 01:55 - Osservazioni Meteo Udine-Rivolto
Lat. 45° 59' N Lon. 13° 2' E Alt. 51 metri s.l.m.

molto_nuvoloso Europe/Rome

10 °C

Molto Nuvoloso

Temp. 24 Ore

8 °C

14 °C

Nord

13 Km/h

Dew point 7 °C

Umidità 81 %

Visibilità  10 Km

Il sole sorge alle ore 06:38

Il sole tramonta alle ore 18:00

Data e Ora Cielo e Fenomeni T °C DP °C Um. % Pres. hPa Vis. km Vento km/h
Oggi h: 01:55 molto_nuvoloso Molto Nuvoloso 10 7 81 1006 10 N 13
Oggi h: 00:55 molto_nuvoloso Molto Nuvoloso 10 7 81 1007 10 N 11.1
Ieri h: 23:55 nuvoloso Nuvoloso 9 7 87 1007 10 N 7.4
Ieri h: 22:55 molto_nuvoloso Molto Nuvoloso 10 8 87 1007 10 N/NE 9.3
Ieri h: 21:55 molto_nuvoloso Molto Nuvoloso 10 8 87 1007 10 N/NE 11.1
Ieri h: 20:55 nuvoloso Nuvoloso 10 8 87 1007 10 E/NE 11.1
Ieri h: 19:55 molto_nuvoloso Molto Nuvoloso 10 9 93 1007 10 N 7.4
Ieri h: 18:55 nuvoloso Nuvoloso 10 8 87 1007 10 N 7.4
Ieri h: 17:55 coperto_pioggia Pioggia Debole 11 7 76 1007 10 E 9.3
Ieri h: 16:55 molto_nuvoloso Molto Nuvoloso 13 8 71 1007 10 N 5.5
Ieri h: 15:55 molto_nuvoloso Molto Nuvoloso 13 8 71 1007 10 N 3.7
Ieri h: 14:55 molto_nuvoloso Molto Nuvoloso 13 8 71 1008 10 SE 9.3
Ieri h: 13:55 molto_nuvoloso Molto Nuvoloso 14 8 67 1008 10 N 5.5
Ieri h: 12:55 nuvoloso Nuvoloso 14 9 71 1008 10 N 5.5
Ieri h: 11:55 molto_nuvoloso Molto Nuvoloso 12 9 81 1009 10 E/SE 7.4
Ieri h: 10:55 molto_nuvoloso Molto Nuvoloso 12 10 87 1010 10 E 9.3
Ieri h: 09:55 nuvoloso Nuvoloso 11 11 100 1009 6 N 5.5
Ieri h: 08:55 foschia Foschia 10 10 100 1010 4 E/NE 9.3
Ieri h: 07:55 foschia Foschia 9 9 100 1010 5 N/NE 7.4
Ieri h: 06:55 nebbia Nebbia 8 8 100 1009 0.9 N 5.5
Ieri h: 05:55 molto_nuvoloso Molto Nuvoloso 8 6 87 1009 10 N 3.7
Ieri h: 04:55 molto_nuvoloso Molto Nuvoloso 9 7 87 1009 10 N/NE 7.4
Ieri h: 03:55 molto_nuvoloso Molto Nuvoloso 9 7 87 1009 10 N 5.5
Ieri h: 02:55 molto_nuvoloso Molto Nuvoloso 9 8 93 1010 10 N 3.7
Ieri h: 01:55 molto_nuvoloso Molto Nuvoloso 10 8 87 1010 10 N 5.5